Welcome to our new website - Welkom op onze vernieuwde website - Bienvenue sur notre nouveau site web - Willkommen auf unserer neuen Website


Onweer radar Meer informatie blitzortung!


Regen radar Meer informatie rain snow radar


Andere websites:

Onze vorige site

Leuven Template



METAR rapporten vliegvelden

   
EHGG - Leeuwarden
Gewijzigd: 22-08-2019 17:25
Helder  
Helder  
   Wind: Westen 20.4 km/h
Wind: Westen 20.4 km/h
Temperatuur: 24°C
Dauwpunt: 11°C
Vochtigheid: 44%
Barometer: 1024 hPa
Bewolking: Helder
Zicht: meer dan 10 km
Bewolking: Helder
EHGG 221525Z AUTO 26011KT 230V290 9999 NCD 24/11 Q1024 NOSIG
EHGG - Terschelling
Gewijzigd: 22-08-2019 17:25
Helder  
Helder  
   Wind: Westen 20.4 km/h
Wind: Westen 20.4 km/h
Temperatuur: 24°C
Dauwpunt: 11°C
Vochtigheid: 44%
Barometer: 1024 hPa
Bewolking: Helder
Zicht: meer dan 10 km
Bewolking: Helder
EHGG 221525Z AUTO 26011KT 230V290 9999 NCD 24/11 Q1024 NOSIG
EHAM - Amsterdam
Gewijzigd: 22-08-2019 17:25
Helder  
Helder  
   Wind: Westen 24.1 km/h
Wind: Westen 24.1 km/h
Temperatuur: 21°C
Dauwpunt: 11°C
Vochtigheid: 53%
Barometer: 1025 hPa
Zicht: meer dan 10 km
Bewolking: Helder
EHAM 221525Z 27013KT CAVOK 21/11 Q1025 NOSIG
EHBK - Maastricht
Gewijzigd: 22-08-2019 17:25
Helder  
Helder  
   Wind: varieert 7.4 km/h
Wind: varieert 7.4 km/h
Temperatuur: 25°C
Dauwpunt: 12°C
Vochtigheid: 44%
Barometer: 1024 hPa
Bewolking: Helder
Zicht: meer dan 10 km
Bewolking: Helder
EHBK 221525Z AUTO VRB04KT 9999 NCD 25/12 Q1024 NOSIG
  

Script ontwikkeld door  Saratoga-weather.org Aangepast voor de template door  Weerstation Leuven

U vindt ons ook hier:

European Weather Network

Weather Underground

AWEKAS

Apparatuur in gebruik:

Weerstation
Davis VP2

Weerprogramma
Cumulus

Davis VP2

Cumulus